Latest Weather Observations for Amberley

IDQ60901

Issued at 2:41 pm EST Monday 31 August 2015 (issued every 10 minutes, with the page automatically refreshed every 10 minutes)

About weather observations | Map of Brisbane area stations | Latest observations for Brisbane area | Other Formats
Station Details ID: 040004 Name: AMBERLEY AMO Lat: -27.63 Lon: 152.71 Height: 24.2 m
Data from the previous 72 hours. | See also: Recent months at Amberley
Date/Time
EST
Tmp

°C
App
Tmp
°C
Dew
Point
°C
Rel
Hum
%
Delta-T

°C
Wind Press
QNH
hPa
Press
MSL
hPa
Rain
since
9 am
mm
Dir
 
Spd
km/h
Gust
km/h
Spd
kts
Gust
kts
31/02:30pm 23.1 16.5 -7.4 12 12.0 W 20 35 11 19 1012.9 - 0.0
31/02:00pm 24.1 18.4 -1.1 19 11.3 WSW 19 28 10 15 1013.1 - 0.0
31/01:30pm 23.6 19.1 -0.2 20 10.8 NW 13 22 7 12 1013.5 - 0.0
31/01:00pm 23.2 19.5 0.1 21 10.5 WSW 9 13 5 7 1013.8 - 0.0
31/12:30pm 21.1 18.2 4.5 33 8.1 NNW 9 17 5 9 1014.1 - 0.0
31/12:00pm 20.7 17.3 3.8 33 8.1 WNW 11 30 6 16 1014.6 1014.6 0.0
31/11:30am 20.2 16.9 4.5 35 7.6 NW 11 19 6 10 1015.1 - 0.0
31/11:00am 20.3 16.9 4.0 34 7.8 N 11 15 6 8 1015.7 - 0.0
31/10:30am 19.4 16.5 4.7 38 7.1 WNW 9 15 5 8 1016.2 - 0.0
31/10:00am 18.8 16.1 3.7 36 7.1 WNW 7 13 4 7 1016.7 - 0.0
31/09:30am 17.4 14.2 3.3 39 6.5 NNW 9 13 5 7 1017.0 - 0.0
31/09:00am 16.4 13.4 3.9 43 5.8 W 9 11 5 6 1017.1 1017.1 0.0
31/08:30am 14.7 11.0 4.3 49 4.8 WNW 13 17 7 9 1017.2 - 0.0
31/08:00am 12.3 9.8 6.6 68 2.7 NW 9 13 5 7 1017.0 - 0.0
31/07:30am 10.2 9.3 6.1 76 1.9 CALM 0 0 0 0 1016.9 - 0.0
31/07:00am 7.3 6.4 6.0 91 0.6 CALM 0 0 0 0 1016.8 - 0.0
31/06:30am 5.3 3.0 4.6 95 0.3 SSE 6 7 3 4 1016.7 - 0.0
31/06:00am 5.4 3.0 4.2 92 0.5 SSE 6 7 3 4 1016.4 1016.4 0.0
31/05:30am 5.7 3.7 4.5 92 0.5 SSE 4 7 2 4 1016.1 - 0.0
31/05:00am 6.2 5.0 4.8 91 0.6 CALM 0 0 0 0 1016.1 - 0.0
31/04:30am 6.8 5.7 5.2 89 0.7 CALM 0 0 0 0 1015.9 - 0.0
31/04:00am 6.7 5.6 5.3 91 0.6 CALM 0 0 0 0 1015.9 - 0.0
31/03:30am 6.0 4.8 4.4 89 0.7 CALM 0 0 0 0 1015.9 - 0.0
31/03:00am 6.6 5.1 5.0 89 0.7 SSE 2 7 1 4 1016.0 1016.0 0.0
31/02:30am 7.0 6.0 5.7 91 0.6 CALM 0 0 0 0 1016.1 - 0.0
31/02:00am 7.6 6.6 5.6 87 0.9 CALM 0 0 0 0 1016.4 - 0.0
31/01:30am 7.5 6.5 5.5 87 0.9 CALM 0 0 0 0 1016.4 - 0.0
31/01:00am 7.7 6.7 5.7 87 0.9 CALM 0 0 0 0 1016.6 - 0.0
31/12:30am 8.1 7.1 5.4 83 1.2 CALM 0 6 0 3 1016.8 - 0.0
31/12:00am 8.3 7.3 5.6 83 1.2 CALM 0 0 0 0 1016.9 1016.9 0.0
 
Date/Time
EST
Tmp

°C
App
Tmp
°C
Dew
Point
°C
Rel
Hum
%
Delta-T

°C
Wind Press
QNH
hPa
Press
MSL
hPa
Rain
since
9 am
mm
Dir
 
Spd
km/h
Gust
km/h
Spd
kts
Gust
kts
30/11:30pm 9.4 8.4 5.4 76 1.8 CALM 0 0 0 0 1016.9 - 0.0
30/11:00pm 10.2 8.8 5.6 73 2.1 E 2 6 1 3 1017.2 - 0.0
30/10:30pm 10.4 9.4 5.6 72 2.2 CALM 0 0 0 0 1017.2 - 0.0
30/10:00pm 9.1 5.6 5.6 79 1.6 WNW 13 13 7 7 1017.0 - 0.0
30/09:30pm 9.2 5.5 6.2 81 1.4 NW 15 17 8 9 1016.9 - 0.0
30/09:00pm 13.0 10.7 5.0 58 3.7 WNW 6 9 3 5 1016.8 1016.8 0.0
30/08:30pm 14.9 13.4 4.9 51 4.7 WSW 2 11 1 6 1016.6 - 0.0
30/08:00pm 15.5 13.1 4.3 47 5.2 S 6 11 3 6 1016.2 - 0.0
30/07:30pm 15.4 12.5 4.5 48 5.1 E 9 11 5 6 1015.8 - 0.0
30/07:00pm 16.8 12.2 3.9 42 6.0 W 17 22 9 12 1015.1 - 0.0
30/06:30pm 17.4 12.7 3.4 39 6.5 W 17 26 9 14 1014.8 - 0.0
30/06:00pm 17.8 13.7 2.4 35 7.0 W 13 17 7 9 1014.4 1014.4 0.0
30/05:30pm 19.5 16.0 1.0 29 8.3 SW 9 9 5 5 1014.1 - 0.0
30/05:00pm 21.4 17.7 -0.1 24 9.6 WSW 9 13 5 7 1013.6 - 0.0
30/04:30pm 22.1 17.2 -0.2 22 10.0 W 15 22 8 12 1013.5 - 0.0
30/04:00pm 22.1 17.0 -2.3 19 10.5 SW 15 24 8 13 1013.5 - 0.0
30/03:30pm 22.8 17.7 -1.6 19 10.7 SW 15 19 8 10 1013.5 - 0.0
30/03:00pm 22.7 17.0 -0.5 21 10.4 W 19 28 10 15 1013.7 1013.7 0.0
30/02:30pm 22.7 16.8 -0.5 21 10.4 WSW 20 33 11 18 1013.8 - 0.0
30/02:00pm 22.7 16.8 -0.6 21 10.4 SSW 20 28 11 15 1014.1 - 0.0
30/01:30pm 22.3 15.3 -0.2 22 10.1 WSW 26 33 14 18 1014.3 - 0.0
30/01:00pm 22.4 15.4 2.2 26 9.5 W 28 35 15 19 1014.6 - 0.0
30/12:30pm 22.3 16.9 2.7 27 9.3 WNW 20 30 11 16 1015.0 - 0.0
30/12:00pm 22.1 17.0 3.0 28 9.1 NW 19 24 10 13 1015.5 1015.5 0.0
30/11:30am 21.2 15.8 2.7 29 8.7 W 20 26 11 14 1016.1 - 0.0
30/11:00am 21.1 17.0 4.4 33 8.1 WSW 15 24 8 13 1016.8 - 0.0
30/10:30am 19.9 17.2 5.7 39 7.0 W 9 19 5 10 1017.3 - 0.0
30/10:00am 19.6 16.3 4.7 37 7.2 WSW 11 17 6 9 1017.8 - 0.0
30/09:30am 18.2 16.2 8.7 54 4.9 W 9 13 5 7 1018.2 - 0.0
30/09:00am 17.2 15.2 10.0 62 3.8 NW 11 15 6 8 1018.3 1018.3 13.4
30/08:30am 15.5 14.0 10.6 72 2.6 NW 9 11 5 6 1018.0 - 13.4
30/08:00am 14.7 14.7 11.1 79 1.9 NW 2 6 1 3 1018.0 - 13.4
30/07:30am 14.0 14.4 11.2 83 1.5 CALM 0 0 0 0 1017.5 - 13.4
30/07:00am 13.6 14.1 11.7 88 1.0 CALM 0 0 0 0 1017.5 - 13.4
30/06:30am 12.5 12.4 10.8 89 0.9 NNW 2 9 1 5 1017.3 - 13.4
30/06:00am 12.1 11.3 10.9 92 0.6 NNW 6 11 3 6 1017.2 1017.2 13.4
30/05:30am 12.6 13.1 11.7 94 0.5 CALM 0 0 0 0 1016.8 - 13.4
30/05:00am 12.8 11.6 11.7 93 0.6 NNW 9 9 5 5 1016.8 - 13.4
30/04:30am 12.8 13.5 12.2 96 0.3 CALM 0 0 0 0 1016.6 - 13.4
30/04:00am 13.3 12.8 12.2 93 0.6 NNW 6 9 3 5 1016.5 - 13.4
30/03:30am 13.6 12.3 12.5 93 0.6 NW 11 13 6 7 1016.9 - 13.4
30/03:00am 13.8 12.6 12.7 93 0.6 NW 11 13 6 7 1017.4 1017.4 13.4
30/02:30am 13.6 13.1 12.7 94 0.5 N 7 9 4 5 1017.6 - 13.4
30/02:00am 13.4 14.3 13.0 97 0.2 CALM 0 6 0 3 1017.7 - 13.4
30/01:30am 13.7 14.6 13.0 96 0.4 CALM 0 0 0 0 1017.5 - 13.4
30/01:17am 13.7 13.0 13.2 97 0.3 NE 9 11 5 6 1017.4 - 13.4
30/01:00am 14.0 13.4 13.5 97 0.3 NNW 9 13 5 7 1018.8 - 13.4
30/12:59am 14.0 13.4 13.5 97 0.3 NNW 9 13 5 7 1018.9 - 13.4
30/12:40am 13.9 13.6 13.2 96 0.4 NNW 7 9 4 5 1018.9 - 13.4
30/12:30am 14.0 13.3 13.3 96 0.4 N 9 11 5 6 1018.9 - 13.4
30/12:00am 14.4 13.9 13.7 96 0.4 NNW 9 11 5 6 1019.2 1019.2 13.4
 
Date/Time
EST
Tmp

°C
App
Tmp
°C
Dew
Point
°C
Rel
Hum
%
Delta-T

°C
Wind Press
QNH
hPa
Press
MSL
hPa
Rain
since
9 am
mm
Dir
 
Spd
km/h
Gust
km/h
Spd
kts
Gust
kts
29/11:30pm 14.5 14.1 14.0 97 0.3 WNW 9 11 5 6 1019.6 - 13.2
29/11:00pm 14.5 14.1 14.0 97 0.3 WNW 9 11 5 6 1019.4 - 13.2
29/10:30pm 14.4 15.3 13.9 97 0.3 W 2 7 1 4 1019.2 - 13.2
29/10:12pm 14.7 14.8 13.8 94 0.5 W 6 9 3 5 1019.3 - 13.2
29/10:00pm 14.7 14.6 13.8 94 0.5 W 7 9 4 5 1019.5 - 13.2
29/09:54pm 14.7 14.6 13.8 94 0.5 WNW 7 9 4 5 1019.5 - 13.2
29/09:30pm 15.0 15.5 13.9 93 0.6 WSW 4 9 2 5 1019.8 - 12.8
29/09:00pm 15.7 15.7 15.2 97 0.3 W 9 11 5 6 1020.1 1020.2 12.8
29/08:30pm 15.6 15.9 15.1 97 0.3 NNE 7 11 4 6 1019.6 - 12.8
29/08:29pm 15.6 15.6 15.1 97 0.3 NNE 9 11 5 6 1019.6 - 12.8
29/08:06pm 15.5 15.0 15.0 97 0.3 ENE 11 13 6 7 1019.5 - 12.4
29/08:00pm 15.5 15.4 15.0 97 0.3 ENE 9 11 5 6 1019.7 - 12.2
29/07:45pm 15.5 17.2 15.2 98 0.2 CALM 0 0 0 0 1020.3 - 11.2
29/07:30pm 15.6 16.5 15.1 97 0.3 WNW 4 7 2 4 1020.3 - 10.6
29/07:23pm 15.6 16.5 15.1 97 0.3 WNW 4 7 2 4 1020.3 - 10.2
29/07:08pm 15.5 17.2 15.2 98 0.2 CALM 0 0 0 0 1020.2 - 9.8
29/07:00pm 15.7 17.4 15.2 97 0.3 CALM 0 0 0 0 1020.1 - 9.6
29/06:32pm 15.8 17.5 15.1 96 0.4 CALM 0 0 0 0 1020.1 - 8.6
29/06:30pm 15.8 17.5 15.1 96 0.4 CALM 0 0 0 0 1020.1 - 8.6
29/06:10pm 15.8 17.5 15.1 96 0.4 CALM 0 6 0 3 1020.1 - 7.8
29/06:00pm 16.1 16.4 15.1 94 0.6 WNW 7 9 4 5 1020.2 1020.3 7.2
29/05:30pm 16.3 15.9 15.3 94 0.6 WSW 11 15 6 8 1020.2 - 5.6
29/05:00pm 16.7 17.3 15.3 91 0.8 WSW 6 9 3 5 1019.7 - 4.0
29/04:36pm 16.9 16.6 15.4 91 0.9 W 11 17 6 9 1019.3 - 3.2
29/04:30pm 17.0 16.2 15.1 88 1.1 W 13 19 7 10 1019.1 - 3.0
29/04:18pm 17.2 15.5 14.6 85 1.5 W 17 22 9 12 1019.2 - 2.4
29/04:00pm 19.0 18.7 13.4 70 3.2 NE 7 9 4 5 1018.4 - 0.4
29/03:30pm 20.9 18.3 10.6 51 5.6 ENE 15 19 8 10 1018.0 - 0.0
29/03:00pm 21.2 18.6 10.6 50 5.8 ENE 15 20 8 11 1018.0 1018.0 0.0
29/02:30pm 21.6 19.3 10.4 49 6.1 NE 13 19 7 10 1018.4 - 0.0
29/02:00pm 21.8 20.3 10.7 49 6.1 NNE 9 15 5 8 1018.9 - 0.0
29/01:30pm 22.3 20.8 10.6 47 6.4 NNE 9 22 5 12 1019.3 - 0.0
29/01:00pm 22.6 20.3 10.3 45 6.7 ENE 13 24 7 13 1019.9 - 0.0
29/12:30pm 21.9 20.2 9.9 46 6.5 E 9 17 5 9 1020.6 - 0.0
29/12:00pm 21.2 20.0 9.6 47 6.2 E 6 13 3 7 1021.3 1021.4 0.0
29/11:30am 20.6 18.9 9.7 49 5.8 N 9 13 5 7 1021.8 - 0.0
29/11:00am 20.9 19.0 9.0 46 6.3 S 9 17 5 9 1022.3 - 0.0
29/10:30am 19.5 18.1 8.7 49 5.6 SSW 6 11 3 6 1022.8 - 0.0
29/10:00am 18.5 16.2 7.4 48 5.6 WSW 9 11 5 6 1023.3 - 0.0
29/09:30am 16.8 14.9 6.9 52 4.9 W 6 11 3 6 1023.4 - 0.0
29/09:00am 14.9 13.2 7.6 61 3.6 NW 6 9 3 5 1023.6 1023.7 0.0
29/08:30am 12.6 10.8 7.9 73 2.3 NNW 7 9 4 5 1023.8 - 0.0
29/08:00am 11.1 10.6 7.8 80 1.6 CALM 0 0 0 0 1023.6 - 0.0
29/07:30am 9.3 8.7 7.6 89 0.8 CALM 0 0 0 0 1023.3 - 0.0
29/07:00am 7.8 7.0 6.7 93 0.5 CALM 0 0 0 0 1023.1 - 0.0
29/06:30am 6.8 5.8 5.7 93 0.5 CALM 0 0 0 0 1023.1 - 0.0
29/06:00am 6.5 5.5 5.6 94 0.4 CALM 0 0 0 0 1022.7 1022.8 0.0
29/05:30am 6.3 5.3 5.4 94 0.4 CALM 0 0 0 0 1022.4 - 0.0
29/05:00am 6.8 5.8 5.7 93 0.5 CALM 0 0 0 0 1022.0 - 0.0
29/04:30am 6.5 5.5 5.8 95 0.3 CALM 0 0 0 0 1021.9 - 0.0
29/04:00am 6.8 5.8 5.4 91 0.6 CALM 0 0 0 0 1022.0 - 0.0
29/03:30am 6.0 4.9 5.3 95 0.3 CALM 0 0 0 0 1022.1 - 0.0
29/03:00am 6.3 5.2 5.2 93 0.5 CALM 0 0 0 0 1022.3 1022.4 0.0
29/02:30am 6.4 5.3 5.3 93 0.5 CALM 0 0 0 0 1022.5 - 0.0
29/02:00am 6.9 5.8 5.3 89 0.7 CALM 0 0 0 0 1022.4 - 0.0
29/01:30am 6.9 4.5 5.3 89 0.7 NW 7 9 4 5 1022.4 - 0.0
29/01:00am 6.2 4.0 5.3 94 0.4 NW 6 13 3 7 1022.5 - 0.0
29/12:30am 6.8 5.8 5.7 93 0.5 CALM 0 0 0 0 1022.6 - 0.0
29/12:00am 8.0 7.1 6.2 88 0.8 CALM 0 0 0 0 1022.6 1022.7 0.0
 
Date/Time
EST
Tmp

°C
App
Tmp
°C
Dew
Point
°C
Rel
Hum
%
Delta-T

°C
Wind Press
QNH
hPa
Press
MSL
hPa
Rain
since
9 am
mm
Dir
 
Spd
km/h
Gust
km/h
Spd
kts
Gust
kts
28/11:30pm 8.5 7.6 6.1 85 1.1 CALM 0 0 0 0 1022.4 - 0.0
28/11:00pm 9.3 8.4 6.0 80 1.5 CALM 0 0 0 0 1022.4 - 0.0
28/10:30pm 9.0 6.7 5.7 80 1.5 NNW 7 9 4 5 1022.4 - 0.0
28/10:00pm 10.1 9.0 5.2 71 2.2 CALM 0 0 0 0 1022.5 - 0.0
28/09:30pm 11.0 10.1 6.0 71 2.3 CALM 0 0 0 0 1022.6 - 0.0
28/09:00pm 10.8 8.3 4.8 66 2.7 NNW 7 11 4 6 1022.4 1022.5 0.0
28/08:30pm 13.7 12.1 4.3 53 4.3 SSW 2 7 1 4 1022.4 - 0.0
28/08:00pm 14.5 12.9 4.5 51 4.6 E 2 9 1 5 1022.1 - 0.0
28/07:30pm 14.6 11.5 3.8 48 4.9 NE 9 13 5 7 1021.5 - 0.0
28/07:00pm 16.9 12.7 3.7 41 6.1 W 15 19 8 10 1020.9 - 0.0
28/06:30pm 17.3 13.1 3.8 40 6.3 W 15 20 8 11 1020.6 - 0.0
28/06:00pm 19.2 15.5 4.3 37 7.1 W 13 17 7 9 1019.8 1019.9 0.0
28/05:30pm 20.1 16.4 4.3 35 7.6 W 13 17 7 9 1019.5 - 0.0
28/05:00pm 22.1 16.4 2.9 28 9.1 W 22 30 12 16 1019.1 - 0.0
28/04:30pm 23.3 18.5 2.8 26 9.8 W 17 26 9 14 1018.8 - 0.0
28/04:00pm 24.1 18.4 2.6 24 10.3 WNW 22 28 12 15 1018.6 - 0.0
28/03:30pm 24.1 19.0 3.3 25 10.1 WNW 19 28 10 15 1018.4 - 0.0
28/03:00pm 24.7 18.3 3.1 24 10.5 W 26 30 14 16 1018.3 1018.3 0.0

Latest Capital City Observations: Canberra | Sydney | Melbourne | Brisbane | Adelaide | Perth | Hobart | Darwin

Other Formats:

Comma delimited format used in spreadsheet applications
http://www.bom.gov.au/fwo/IDQ60901/IDQ60901.94568.axf

JavaScript Object Notation format (JSON) in row-major order
http://www.bom.gov.au/fwo/IDQ60901/IDQ60901.94568.json